Camp Pendleton MCAS (Munn Field) Airport Oceanside US
ICAO: KNFG
IATA: NFG
Category: Medium
Scheduled Services: No

Elevation: 78 ft
TransAlt. 18000 ft.

Airport Communications:
SOCAL APP/DEP:127.3
APP/DEP:128.45
ATIS:26.76
CLNC DEL:126.2
GND:128.775
MCB RANGE CON:123.2
BASE OPS:26.5
PMSV METRO:34.24
TWR:128.775

KNFG Zoom In..

Runways:

(A) RW 03 length 6005 ft width 200 ft
---- / hdg 31

(B) RW 21 length 6005 ft width 200 ft
---- / hdg 211

Location; KNFG
Day. 21 / Time. 22.55 Zulu
* Altimeter: 30.24
* Temperature: 16° c. 60.8°f.
* Wind from: VRB° Speed 04 kn.
Dewpoint: 03° c.
Visibility: 10 Statute Miles.
Clouds: Clear (automated report).

KNFG 212255Z AUTO VRB04KT 10SM CLR 16/03 A3024 RMK AO2 SLP239 T01610033


Wind From VRB°
Speed 04 kn.

jpsM music video
CHECK IT OUT

jpsM - It Moves..

 
jpsmedia.com for Web Design  worldairports.se 2018   terms of use